Time;durP1;ratioP1;P1;durP2;ratioP2;P2;SDS_P1;SDS_P2;PMS_P1;PMS_P2;Temp;Humidity;BMP_temperature;BMP_pressure;BME280_temperature;BME280_humidity;BME280_pressure;Samples;Min_cycle;Max_cycle;Signal;HPM_P1;HPM_P2
2023/01/10 00:01:06;;;;;;;10.35;1.90;;;;;;;-14.89;60.33;101495.53;5049174;28;20052;-41
2023/01/10 00:04:10;;;;;;;4.47;0.88;;;;;;;-14.90;60.76;101460.47;5029400;28;20045;-40
2023/01/10 00:07:13;;;;;;;2.25;1.45;;;;;;;-14.69;61.08;101494.91;5029551;28;20203;-41
2023/01/10 00:10:34;;;;;;;5.03;2.13;;;;;;;-14.64;60.60;101497.09;5040130;28;20535;-42
2023/01/10 00:13:22;;;;;;;4.18;1.60;;;;;;;-14.64;60.99;101501.22;5043384;28;20040;-42
2023/01/10 00:16:07;;;;;;;3.47;1.30;;;;;;;-14.65;59.65;101490.34;5049076;28;20068;-43
2023/01/10 00:18:52;;;;;;;5.20;1.77;;;;;;;-14.62;60.24;101482.28;5043293;28;20060;-43
2023/01/10 00:22:16;;;;;;;3.25;1.50;;;;;;;-14.56;60.29;101491.97;5028278;28;20045;-42
2023/01/10 00:25:00;;;;;;;5.38;1.90;;;;;;;-14.77;60.12;101483.34;5033723;28;20429;-41
2023/01/10 00:27:26;;;;;;;3.20;1.70;;;;;;;-14.67;60.43;101483.47;5011482;28;20045;-43
2023/01/10 00:30:14;;;;;;;3.72;1.83;;;;;;;-14.67;59.88;101476.00;5045471;28;20044;-41
2023/01/10 00:33:02;;;;;;;4.95;1.63;;;;;;;-14.66;60.09;101493.63;5047712;28;20036;-41
2023/01/10 00:35:28;;;;;;;3.85;1.65;;;;;;;-14.81;59.37;101469.69;5046090;28;20048;-42
2023/01/10 00:38:00;;;;;;;4.82;1.83;;;;;;;-14.73;60.54;101472.91;5048560;28;20519;-41
2023/01/10 00:40:26;;;;;;;10.90;2.00;;;;;;;-14.72;60.38;101475.56;5028806;28;20103;-42
2023/01/10 00:46:50;;;;;;;2.55;0.93;;;;;;;-14.66;60.39;101480.25;5045098;28;20826;-42
2023/01/10 00:49:16;;;;;;;6.50;2.38;;;;;;;-14.69;59.76;101469.97;5045815;28;20090;-43
2023/01/10 00:52:01;;;;;;;10.77;1.75;;;;;;;-14.71;59.24;101471.44;5046011;28;20044;-41
2023/01/10 00:54:46;;;;;;;4.75;1.75;;;;;;;-14.90;59.66;101436.41;5034077;28;20045;-42
2023/01/10 00:57:49;;;;;;;0.80;0.63;;;;;;;-14.75;59.67;101469.38;5046062;28;20064;-40
2023/01/10 01:00:33;;;;;;;3.97;1.60;;;;;;;-14.74;60.01;101461.16;5043592;28;20049;-42
2023/01/10 01:03:37;;;;;;;7.18;2.15;;;;;;;-14.71;59.42;101458.97;5047225;28;20049;-41
2023/01/10 01:06:42;;;;;;;3.50;1.38;;;;;;;-14.57;59.53;101468.63;5035976;28;20045;-41
2023/01/10 01:09:26;;;;;;;1.08;0.90;;;;;;;-14.71;59.70;101463.97;5035042;28;20036;-42
2023/01/10 01:12:11;;;;;;;5.60;1.75;;;;;;;-15.00;59.37;101416.31;5046920;28;20078;-41
2023/01/10 01:14:37;;;;;;;2.90;1.23;;;;;;;-14.77;60.29;101448.41;5036333;28;20037;-43
2023/01/10 01:17:21;;;;;;;1.90;1.10;;;;;;;-14.73;59.62;101435.47;5032788;28;20037;-42
2023/01/10 01:20:06;;;;;;;12.85;2.85;;;;;;;-14.83;59.71;101432.88;5032434;28;20090;-40
2023/01/10 01:23:09;;;;;;;2.80;1.17;;;;;;;-14.67;58.64;101434.44;5032331;28;20064;-42
2023/01/10 01:26:13;;;;;;;2.65;1.77;;;;;;;-14.75;59.36;101419.47;5032501;28;20046;-42
2023/01/10 01:28:57;;;;;;;5.28;1.95;;;;;;;-14.61;59.92;101431.63;5014445;28;20572;-43
2023/01/10 01:31:41;;;;;;;4.00;1.45;;;;;;;-14.58;58.61;101424.41;5046823;28;20041;-45
2023/01/10 01:34:26;;;;;;;5.43;1.50;;;;;;;-14.67;59.12;101423.56;5035970;28;20075;-42
2023/01/10 01:36:52;;;;;;;4.30;2.05;;;;;;;-14.63;59.81;101431.47;5052204;28;20479;-44
2023/01/10 01:39:55;;;;;;;9.05;1.92;;;;;;;-14.62;59.15;101425.75;5049118;28;20123;-41
2023/01/10 01:42:40;;;;;;;4.32;1.83;;;;;;;-14.70;59.18;101414.16;5032214;28;20658;-41
2023/01/10 01:45:28;;;;;;;4.20;1.63;;;;;;;-14.52;58.47;101441.56;5031065;28;20052;-43
2023/01/10 01:48:16;;;;;;;3.47;1.50;;;;;;;-14.60;58.75;101435.00;5049978;28;20037;-41
2023/01/10 01:51:19;;;;;;;3.70;1.33;;;;;;;-14.63;58.99;101441.47;5031988;28;20049;-44
2023/01/10 01:54:10;;;;;;;6.25;2.15;;;;;;;-14.56;59.03;101427.94;5033882;28;20405;-42
2023/01/10 01:56:44;;;;;;;5.60;2.33;;;;;;;-14.70;59.41;101433.25;5036664;28;20037;-42
2023/01/10 02:00:07;;;;;;;3.53;1.50;;;;;;;-14.75;60.04;101442.81;5030496;28;20497;-43
2023/01/10 02:02:58;;;;;;;2.58;1.58;;;;;;;-14.77;59.27;101436.81;5035167;28;20059;-40
2023/01/10 02:06:01;;;;;;;7.07;1.83;;;;;;;-14.81;59.39;101429.75;5039966;28;20424;-42
2023/01/10 02:09:04;;;;;;;3.05;1.27;;;;;;;-14.67;60.27;101441.03;5050252;28;20556;-41
2023/01/10 02:11:49;;;;;;;3.83;1.55;;;;;;;-14.78;59.42;101430.06;5048375;28;20037;-42
2023/01/10 02:14:34;;;;;;;4.82;1.80;;;;;;;-14.76;58.99;101436.09;5014543;28;20550;-42
2023/01/10 02:17:19;;;;;;;2.10;1.17;;;;;;;-14.54;59.09;101443.03;5030342;28;20064;-42
2023/01/10 02:20:23;;;;;;;11.15;2.30;;;;;;;-14.60;59.85;101425.03;5044183;28;20049;-42
2023/01/10 02:23:14;;;;;;;4.95;2.42;;;;;;;-14.41;59.75;101435.94;5013307;28;20092;-42
2023/01/10 02:26:33;;;;;;;4.55;1.90;;;;;;;-14.26;58.99;101439.81;5029688;28;20033;-43
2023/01/10 02:29:36;;;;;;;4.53;2.03;;;;;;;-14.05;58.28;101453.38;5045671;28;20417;-42
2023/01/10 02:32:11;;;;;;;3.85;1.33;;;;;;;-14.35;58.40;101409.00;5029834;28;20477;-42
2023/01/10 02:34:57;;;;;;;7.13;2.22;;;;;;;-14.15;58.24;101441.69;5031960;28;20131;-41
2023/01/10 02:37:45;;;;;;;2.55;1.95;;;;;;;-14.29;59.19;101444.53;5051002;28;20128;-42
2023/01/10 02:41:10;;;;;;;3.25;2.05;;;;;;;-14.15;59.45;101441.69;5037584;28;20596;-41
2023/01/10 02:43:45;;;;;;;2.20;1.35;;;;;;;-14.19;58.42;101425.53;5029175;28;20107;-41
2023/01/10 02:46:35;;;;;;;5.35;2.22;;;;;;;-14.14;58.92;101425.94;5046632;28;20475;-42
2023/01/10 02:49:01;;;;;;;6.68;2.22;;;;;;;-14.11;59.05;101436.22;5023742;28;20050;-43
2023/01/10 02:52:23;;;;;;;13.27;1.90;;;;;;;-14.13;59.38;101436.81;5037974;28;20098;-42
2023/01/10 02:55:10;;;;;;;3.75;1.83;;;;;;;-14.28;58.73;101447.16;5048562;28;20106;-44
2023/01/10 02:58:32;;;;;;;5.10;2.28;;;;;;;-14.20;59.23;101456.25;5050788;28;20179;-43
2023/01/10 03:01:14;;;;;;;3.65;1.67;;;;;;;-14.11;58.32;101445.31;5050408;28;20198;-41
2023/01/10 03:04:17;;;;;;;2.95;2.15;;;;;;;-14.00;58.21;101454.66;5046822;28;20072;-42
2023/01/10 03:07:12;;;;;;;6.60;2.45;;;;;;;-13.92;57.95;101437.13;5052389;28;20033;-42
2023/01/10 03:10:01;;;;;;;6.47;2.88;;;;;;;-13.84;57.96;101440.31;5015151;28;20045;-41
2023/01/10 03:12:47;;;;;;;4.53;1.67;;;;;;;-13.85;58.43;101439.44;5048911;28;20398;-43
2023/01/10 03:15:34;;;;;;;4.70;1.90;;;;;;;-14.03;59.12;101432.81;5038695;28;20132;-42
2023/01/10 03:18:03;;;;;;;2.80;1.48;;;;;;;-13.90;58.41;101448.13;5045397;28;20397;-42
2023/01/10 03:20:31;;;;;;;4.90;2.50;;;;;;;-13.91;58.54;101440.50;5045456;28;20037;-42
2023/01/10 03:23:36;;;;;;;9.68;2.33;;;;;;;-13.88;58.59;101440.78;5041993;28;20094;-42
2023/01/10 03:26:20;;;;;;;4.75;2.08;;;;;;;-13.99;58.26;101458.94;5046786;28;20420;-41
2023/01/10 03:29:06;;;;;;;6.15;2.88;;;;;;;-14.01;59.36;101446.28;5032111;28;20797;-42
2023/01/10 03:31:54;;;;;;;5.47;2.67;;;;;;;-14.30;58.94;101381.22;5034832;28;20037;-42
2023/01/10 03:34:40;;;;;;;5.25;2.38;;;;;;;-13.87;58.38;101435.91;5045874;28;20045;-42
2023/01/10 03:37:52;;;;;;;7.97;1.60;;;;;;;-13.79;58.83;101437.50;5027149;28;20052;-43
2023/01/10 03:41:14;;;;;;;7.00;2.67;;;;;;;-13.68;57.94;101428.44;5028266;28;20046;-42
2023/01/10 03:47:36;;;;;;;7.68;2.63;;;;;;;-13.61;58.04;101439.88;5041302;28;20090;-42
2023/01/10 03:50:23;;;;;;;4.25;1.73;;;;;;;-13.64;58.26;101430.47;5049522;28;20040;-42
2023/01/10 03:52:57;;;;;;;1.98;1.25;;;;;;;-13.78;58.95;101410.88;5030901;28;20584;-43
2023/01/10 03:56:19;;;;;;;5.78;1.63;;;;;;;-13.76;58.19;101429.38;5041013;28;20448;-42
2023/01/10 03:58:45;;;;;;;3.13;1.17;;;;;;;-13.95;58.36;101406.88;5031265;28;20167;-42
2023/01/10 04:01:30;;;;;;;3.80;1.80;;;;;;;-13.82;58.90;101422.22;5046552;28;20448;-42
2023/01/10 04:04:14;;;;;;;7.82;2.20;;;;;;;-13.95;58.48;101394.38;5029410;28;20045;-41
2023/01/10 04:07:17;;;;;;;9.35;2.25;;;;;;;-13.53;58.88;101441.41;5029404;28;20052;-41
2023/01/10 04:10:02;;;;;;;6.25;2.15;;;;;;;-13.46;58.83;101438.72;5055986;28;20465;-42
2023/01/10 04:13:05;;;;;;;5.25;1.52;;;;;;;-13.55;59.30;101448.78;5046742;28;20040;-42
2023/01/10 04:15:31;;;;;;;9.23;2.42;;;;;;;-14.01;58.32;101405.44;5046535;28;20143;-42
2023/01/10 04:18:34;;;;;;;5.90;1.88;;;;;;;-13.83;58.73;101462.06;5027406;28;20041;-42
2023/01/10 04:21:00;;;;;;;3.17;2.00;;;;;;;-13.85;59.17;101456.94;5035787;28;20045;-42
2023/01/10 04:24:04;;;;;;;1.38;0.77;;;;;;;-13.73;59.25;101459.66;5029024;28;20140;-41
2023/01/10 04:26:49;;;;;;;10.80;2.58;;;;;;;-13.61;59.55;101460.75;5035693;28;20048;-42
2023/01/10 04:29:52;;;;;;;4.55;2.35;;;;;;;-13.38;59.50;101467.78;5031105;28;20040;-43
2023/01/10 04:32:18;;;;;;;7.85;1.95;;;;;;;-13.39;58.79;101461.03;5024116;28;20095;-42
2023/01/10 04:35:21;;;;;;;8.90;2.70;;;;;;;-13.34;59.25;101457.28;5046962;28;20052;-43
2023/01/10 04:38:24;;;;;;;3.55;1.67;;;;;;;-13.35;58.66;101475.56;5030429;28;20048;-42
2023/01/10 04:40:55;;;;;;;2.15;1.52;;;;;;;-13.34;59.58;101469.81;5032772;28;20037;-43
2023/01/10 04:43:58;;;;;;;5.68;2.22;;;;;;;-13.73;59.17;101409.66;5029100;28;20049;-43
2023/01/10 04:46:24;;;;;;;6.25;2.70;;;;;;;-13.32;59.47;101476.72;5044896;28;20102;-42
2023/01/10 04:49:28;;;;;;;6.18;2.17;;;;;;;-13.27;58.89;101464.59;5039729;28;20512;-42
2023/01/10 04:52:12;;;;;;;6.18;2.20;;;;;;;-13.26;59.48;101476.38;5043610;28;20098;-42
2023/01/10 04:55:15;;;;;;;8.07;2.88;;;;;;;-13.13;59.06;101475.81;5013936;28;20073;-44
2023/01/10 04:57:42;;;;;;;12.18;2.78;;;;;;;-13.11;58.95;101474.34;5028003;28;20107;-42
2023/01/10 05:00:09;;;;;;;9.80;3.10;;;;;;;-13.05;58.84;101482.34;5041142;28;20536;-41
2023/01/10 05:02:55;;;;;;;3.92;2.10;;;;;;;-12.97;59.36;101487.25;5028382;28;20052;-43
2023/01/10 05:05:40;;;;;;;12.43;2.92;;;;;;;-13.06;59.34;101465.56;5030358;28;20504;-42
2023/01/10 05:08:24;;;;;;;4.32;2.20;;;;;;;-13.13;59.09;101446.66;5046834;28;20076;-41
2023/01/10 05:11:27;;;;;;;2.53;1.02;;;;;;;-12.90;59.17;101489.56;5033417;28;20044;-41
2023/01/10 05:14:30;;;;;;;6.22;1.70;;;;;;;-12.99;59.16;101490.41;5043526;28;20234;-44
2023/01/10 05:17:33;;;;;;;5.07;2.33;;;;;;;-13.11;59.52;101489.34;5047068;28;20037;-42
2023/01/10 05:19:59;;;;;;;6.88;3.10;;;;;;;-13.02;59.65;101486.00;5027750;28;20044;-43
2023/01/10 05:23:02;;;;;;;4.25;1.80;;;;;;;-12.89;59.58;101487.94;5032514;28;20111;-43
2023/01/10 05:26:10;;;;;;;5.57;1.35;;;;;;;-13.03;59.48;101489.22;5037634;28;20049;-43
2023/01/10 05:28:55;;;;;;;8.32;2.50;;;;;;;-13.33;58.94;101454.06;5025886;28;20037;-42
2023/01/10 05:31:57;;;;;;;4.25;2.35;;;;;;;-13.19;59.00;101503.72;5025583;28;20120;-42
2023/01/10 05:34:24;;;;;;;3.80;1.88;;;;;;;-13.08;59.42;101509.63;5040452;28;20485;-42
2023/01/10 05:37:08;;;;;;;5.40;2.08;;;;;;;-13.09;59.90;101508.75;5013819;28;20033;-41
2023/01/10 05:39:53;;;;;;;6.95;2.55;;;;;;;-12.93;59.52;101518.47;5028006;28;20036;-41
2023/01/10 05:42:19;;;;;;;5.57;2.10;;;;;;;-12.84;59.67;101519.28;5042527;28;20424;-41
2023/01/10 05:45:22;;;;;;;6.28;2.95;;;;;;;-12.84;60.10;101533.41;5038757;28;20140;-42
2023/01/10 05:47:48;;;;;;;6.10;2.90;;;;;;;-13.27;59.90;101467.09;5042016;28;20048;-42
2023/01/10 05:50:33;;;;;;;2.42;1.67;;;;;;;-12.89;60.05;101553.91;5019226;28;20044;-43
2023/01/10 05:53:55;;;;;;;10.13;1.38;;;;;;;-12.96;59.61;101546.59;5016965;28;20040;-41
2023/01/10 05:56:21;;;;;;;5.97;2.28;;;;;;;-12.96;59.32;101534.09;5040263;28;20037;-42
2023/01/10 05:59:05;;;;;;;2.55;1.55;;;;;;;-12.88;59.66;101554.81;5042199;28;20037;-42
2023/01/10 06:02:08;;;;;;;2.22;1.70;;;;;;;-13.01;60.12;101559.47;5042395;28;20049;-42
2023/01/10 06:04:54;;;;;;;3.75;2.08;;;;;;;-13.24;59.82;101524.06;5043794;28;20071;-42
2023/01/10 06:07:58;;;;;;;5.25;2.00;;;;;;;-12.83;59.90;101552.69;5031460;28;20045;-42
2023/01/10 06:10:24;;;;;;;2.75;1.33;;;;;;;-12.79;59.96;101549.72;5029852;28;20117;-42
2023/01/10 06:12:49;;;;;;;5.07;2.55;;;;;;;-12.94;59.43;101507.59;5035385;28;20535;-42
2023/01/10 06:15:16;;;;;;;2.53;1.33;;;;;;;-12.83;59.59;101535.16;5031228;28;20045;-42
2023/01/10 06:18:19;;;;;;;6.70;2.53;;;;;;;-12.69;60.64;101554.78;5029426;28;20493;-42
2023/01/10 06:20:45;;;;;;;4.35;2.08;;;;;;;-12.69;60.57;101548.16;5044038;28;20055;-43
2023/01/10 06:23:29;;;;;;;1.55;1.05;;;;;;;-12.75;60.43;101570.13;5048624;28;20045;-40
2023/01/10 06:26:14;;;;;;;6.45;2.42;;;;;;;-13.01;60.92;101532.81;5044289;28;20076;-43
2023/01/10 06:28:59;;;;;;;5.85;2.88;;;;;;;-12.84;61.50;101559.31;5056341;28;20841;-42
2023/01/10 06:31:25;;;;;;;3.75;2.17;;;;;;;-12.99;61.73;101525.44;5041835;28;20037;-42
2023/01/10 06:34:10;;;;;;;3.72;1.92;;;;;;;-12.75;62.24;101551.72;5025450;28;20045;-42
2023/01/10 06:36:54;;;;;;;3.10;1.60;;;;;;;-12.74;62.01;101556.00;5034351;28;20037;-43
2023/01/10 06:39:20;;;;;;;12.23;3.50;;;;;;;-12.78;62.49;101564.88;5045500;28;20520;-42
2023/01/10 06:42:04;;;;;;;4.47;1.75;;;;;;;-12.67;62.66;101579.22;5036468;28;20042;-41
2023/01/10 06:44:30;;;;;;;7.05;1.65;;;;;;;-12.65;62.79;101589.34;5034122;28;20165;-42
2023/01/10 06:46:56;;;;;;;4.43;2.17;;;;;;;-12.84;63.38;101553.44;5043586;28;20461;-41
2023/01/10 06:50:18;;;;;;;3.63;1.42;;;;;;;-12.65;63.36;101589.34;5045928;28;20041;-42
2023/01/10 06:52:44;;;;;;;2.15;1.30;;;;;;;-12.60;63.23;101585.63;5030990;28;20076;-42
2023/01/10 06:55:09;;;;;;;7.10;2.20;;;;;;;-12.70;63.58;101573.03;5047359;28;20053;-43
2023/01/10 06:57:37;;;;;;;4.13;1.85;;;;;;;-12.62;63.55;101562.97;5030599;28;20049;-42
2023/01/10 07:00:26;;;;;;;8.73;2.55;;;;;;;-12.50;63.71;101573.16;5032717;28;20057;-42
2023/01/10 07:02:55;;;;;;;5.72;2.38;;;;;;;-12.90;63.20;101506.22;5050422;28;20049;-43
2023/01/10 07:05:58;;;;;;;5.88;2.13;;;;;;;-12.39;63.30;101574.06;5015207;28;20586;-41
2023/01/10 07:08:44;;;;;;;2.58;1.25;;;;;;;-12.36;62.97;101582.75;5046723;28;20123;-42
2023/01/10 07:11:28;;;;;;;4.35;2.22;;;;;;;-12.31;63.29;101599.06;5032236;28;20095;-42
2023/01/10 07:14:13;;;;;;;4.47;2.45;;;;;;;-12.28;63.67;101591.81;5028894;28;20049;-43
2023/01/10 07:16:39;;;;;;;7.07;1.65;;;;;;;-12.29;63.42;101569.09;5013207;28;20037;-42
2023/01/10 07:19:05;;;;;;;3.50;1.85;;;;;;;-12.29;63.65;101564.09;5048016;28;20044;-42
2023/01/10 07:21:49;;;;;;;6.25;2.35;;;;;;;-12.20;63.36;101564.91;5048303;28;20059;-43
2023/01/10 07:24:15;;;;;;;4.05;1.58;;;;;;;-12.03;63.36;101557.16;5026672;28;20049;-42
2023/01/10 07:26:41;;;;;;;4.45;1.98;;;;;;;-11.97;63.08;101576.88;5028404;28;20041;-42
2023/01/10 07:29:07;;;;;;;2.47;1.73;;;;;;;-12.00;62.72;101570.00;5016289;28;20049;-42
2023/01/10 07:31:52;;;;;;;3.80;2.28;;;;;;;-11.98;62.80;101590.19;5022046;28;20454;-43
2023/01/10 07:35:14;;;;;;;8.07;2.33;;;;;;;-11.92;62.35;101583.16;5036200;28;20052;-45
2023/01/10 07:37:59;;;;;;;4.72;2.15;;;;;;;-11.84;62.16;101593.09;5047538;28;20594;-42
2023/01/10 07:40:43;;;;;;;3.00;1.52;;;;;;;-11.80;62.12;101604.25;5027390;28;20045;-46
2023/01/10 07:43:09;;;;;;;4.38;1.13;;;;;;;-11.80;61.76;101601.75;5030937;28;20037;-43
2023/01/10 07:45:53;;;;;;;2.28;1.25;;;;;;;-11.92;61.76;101590.69;5034013;28;20040;-42
2023/01/10 07:48:19;;;;;;;4.00;1.73;;;;;;;-11.82;62.45;101594.09;5045017;28;20182;-43
2023/01/10 07:50:45;;;;;;;2.50;1.08;;;;;;;-11.88;62.35;101605.25;5028206;28;20045;-43
2023/01/10 07:53:30;;;;;;;6.55;2.33;;;;;;;-11.90;62.29;101594.19;5032359;28;20047;-42
2023/01/10 07:59:17;;;;;;;3.17;2.10;;;;;;;-11.69;62.15;101601.00;5026245;28;20091;-44
2023/01/10 08:02:02;;;;;;;3.67;1.75;;;;;;;-11.57;61.24;101593.63;5034211;28;20049;-42
2023/01/10 08:04:28;;;;;;;6.07;2.50;;;;;;;-11.67;61.56;101589.47;5034679;28;20048;-42
2023/01/10 08:06:54;;;;;;;1.10;0.52;;;;;;;-11.49;61.53;101595.13;5047784;28;20045;-42
2023/01/10 08:13:19;;;;;;;5.35;2.22;;;;;;;-11.46;61.42;101590.38;5030465;28;20119;-42
2023/01/10 08:16:04;;;;;;;3.25;1.33;;;;;;;-11.37;61.43;101586.13;5029132;28;20140;-42
2023/01/10 08:21:53;;;;;;;2.58;1.50;;;;;;;-11.24;61.44;101593.91;5046600;28;20049;-41
2023/01/10 08:24:56;;;;;;;2.90;1.38;;;;;;;-11.25;60.86;101600.53;5036025;28;20039;-43
2023/01/10 08:28:18;;;;;;;2.72;1.15;;;;;;;-11.13;60.54;101600.69;5038651;28;20059;-44
2023/01/10 08:31:07;;;;;;;4.35;1.88;;;;;;;-11.07;60.57;101585.25;5038329;28;20053;-43
2023/01/10 08:34:10;;;;;;;7.75;2.00;;;;;;;-11.09;60.09;101605.19;5024776;28;20049;-40
2023/01/10 08:36:55;;;;;;;6.43;1.80;;;;;;;-11.11;60.14;101599.19;5040065;28;20037;-39
2023/01/10 08:39:58;;;;;;;2.03;1.15;;;;;;;-11.04;59.74;101615.66;5029236;28;20048;-39
2023/01/10 08:43:02;;;;;;;4.18;1.65;;;;;;;-10.86;60.63;101589.50;5027525;28;20509;-42
2023/01/10 08:46:06;;;;;;;4.38;1.85;;;;;;;-10.66;59.45;101588.56;5038276;28;20048;-41
2023/01/10 08:48:51;;;;;;;4.32;1.60;;;;;;;-10.70;59.74;101601.66;5037511;28;20049;-41
2023/01/10 08:51:35;;;;;;;7.18;2.20;;;;;;;-10.72;59.94;101596.50;5032285;28;20048;-42
2023/01/10 08:54:39;;;;;;;6.07;1.35;;;;;;;-10.59;59.58;101586.69;5026964;28;20469;-39
2023/01/10 08:57:23;;;;;;;5.38;2.15;;;;;;;-10.54;59.39;101584.53;5046915;28;20048;-38
2023/01/10 09:00:26;;;;;;;4.80;2.25;;;;;;;-10.48;58.55;101590.06;5035655;28;20112;-39
2023/01/10 09:03:48;;;;;;;2.90;1.48;;;;;;;-10.39;58.30;101589.16;5045008;28;20071;-37
2023/01/10 09:06:14;;;;;;;6.13;1.90;;;;;;;-10.35;58.00;101587.75;5026937;28;20132;-39
2023/01/10 09:17:31;;;;;;;6.20;2.35;;;;;;;-10.12;57.45;101589.53;5027949;28;20045;-39
2023/01/10 09:20:34;;;;;;;5.18;2.45;;;;;;;-10.05;57.47;101581.72;5042098;28;20045;-39
2023/01/10 09:23:33;;;;;;;2.45;1.23;;;;;;;-10.09;57.43;101597.28;5064111;28;20058;-39
2023/01/10 09:26:36;;;;;;;3.65;1.88;;;;;;;-10.16;58.64;101601.03;5053230;28;20052;-39
2023/01/10 09:29:02;;;;;;;6.90;1.92;;;;;;;-10.15;57.65;101597.69;5047249;28;20099;-38
2023/01/10 09:31:47;;;;;;;6.03;2.38;;;;;;;-10.06;58.40;101587.50;5029161;28;20251;-38
2023/01/10 09:34:31;;;;;;;7.40;2.35;;;;;;;-10.12;58.51;101577.81;5046306;28;20379;-39
2023/01/10 09:37:16;;;;;;;3.67;1.52;;;;;;;-10.04;58.20;101584.31;5026594;28;20132;-39
2023/01/10 09:40:38;;;;;;;5.00;1.92;;;;;;;-9.80;58.96;101581.94;5033075;28;20041;-40
2023/01/10 09:43:11;;;;;;;2.50;1.10;;;;;;;-10.13;58.02;101533.31;5051860;28;20087;-38
2023/01/10 09:45:58;;;;;;;2.55;1.27;;;;;;;-10.03;58.33;101570.09;5030322;28;20128;-40
2023/01/10 09:49:04;;;;;;;5.40;1.50;;;;;;;-10.07;58.72;101569.00;5036956;28;20039;-40
2023/01/10 09:51:50;;;;;;;5.22;2.25;;;;;;;-10.12;59.35;101561.84;5051663;28;20090;-39
2023/01/10 09:54:35;;;;;;;4.72;1.67;;;;;;;-10.11;59.52;101572.03;5050526;28;20036;-39
2023/01/10 09:57:38;;;;;;;16.88;1.73;;;;;;;-10.19;59.45;101569.69;5044548;28;20136;-38
2023/01/10 10:00:34;;;;;;;4.93;1.83;;;;;;;-10.16;60.43;101550.72;5030159;28;20045;-39
2023/01/10 10:03:43;;;;;;;4.43;1.45;;;;;;;-10.19;59.41;101565.56;5031372;28;20084;-42
2023/01/10 10:06:46;;;;;;;3.05;1.73;;;;;;;-10.22;59.82;101565.34;5031893;28;20374;-39
2023/01/10 10:10:08;;;;;;;13.55;1.85;;;;;;;-10.17;60.18;101566.56;5031405;28;20094;-39
2023/01/10 10:13:14;;;;;;;1.73;0.98;;;;;;;-10.03;59.77;101571.00;5031299;28;20037;-39
2023/01/10 10:16:19;;;;;;;10.05;1.90;;;;;;;-10.08;60.09;101547.13;5040620;28;20040;-38
2023/01/10 10:19:22;;;;;;;3.53;1.50;;;;;;;-9.94;59.48;101553.19;5041001;28;20053;-39
2023/01/10 10:25:48;;;;;;;2.30;1.10;;;;;;;-9.99;61.03;101550.34;5032525;28;20649;-50
2023/01/10 10:28:51;;;;;;;3.47;1.50;;;;;;;-10.03;60.23;101544.94;5050646;28;20476;-39
2023/01/10 10:31:54;;;;;;;2.17;1.10;;;;;;;-9.93;60.46;101562.50;5050440;28;20041;-40
2023/01/10 10:37:58;;;;;;;5.93;2.05;;;;;;;-9.91;60.12;101544.28;5028400;28;20045;-39
2023/01/10 10:41:01;;;;;;;9.45;1.90;;;;;;;-9.87;59.76;101556.31;5035925;28;20436;-39
2023/01/10 10:43:33;;;;;;;2.63;1.52;;;;;;;-9.91;59.54;101536.72;5049183;28;20128;-39
2023/01/10 10:46:54;;;;;;;3.95;1.70;;;;;;;-9.64;60.35;101553.03;5043798;28;20427;-39
2023/01/10 10:49:53;;;;;;;9.50;1.80;;;;;;;-9.62;58.86;101543.06;5035763;28;20041;-39
2023/01/10 10:53:17;;;;;;;1.98;1.38;;;;;;;-9.60;59.61;101556.66;5030695;28;20463;-39
2023/01/10 10:59:06;;;;;;;5.88;1.77;;;;;;;-9.72;59.81;101554.06;5030540;28;20033;-38
2023/01/10 11:05:17;;;;;;;12.00;2.60;;;;;;;-9.59;59.57;101560.94;5038672;28;20041;-40
2023/01/10 11:08:06;;;;;;;4.97;1.52;;;;;;;-9.61;59.18;101535.63;5036370;28;20041;-39
2023/01/10 11:10:50;;;;;;;4.00;2.00;;;;;;;-9.76;59.37;101518.50;5045902;28;20041;-39
2023/01/10 11:13:57;;;;;;;4.53;1.73;;;;;;;-9.70;59.62;101555.09;5039437;28;20505;-38
2023/01/10 11:20:15;;;;;;;2.88;2.10;;;;;;;-9.57;58.98;101566.94;5056350;28;20303;-38
2023/01/10 11:23:05;;;;;;;5.75;2.35;;;;;;;-9.70;58.52;101560.13;5028621;28;20033;-39
2023/01/10 11:26:08;;;;;;;3.70;1.73;;;;;;;-9.65;57.98;101552.91;5028434;28;20505;-39
2023/01/10 11:29:14;;;;;;;6.72;1.90;;;;;;;-9.57;58.18;101547.69;5056537;28;20075;-38
2023/01/10 11:32:17;;;;;;;5.05;1.83;;;;;;;-9.57;57.79;101554.34;5028557;28;20065;-39
2023/01/10 11:35:06;;;;;;;2.20;1.40;;;;;;;-9.59;57.42;101555.91;5029076;28;20095;-39
2023/01/10 11:37:34;;;;;;;6.78;1.67;;;;;;;-9.52;58.21;101538.84;5028962;28;20052;-39
2023/01/10 11:40:12;;;;;;;4.07;2.13;;;;;;;-9.46;57.28;101546.84;5049447;28;20402;-39
2023/01/10 11:43:15;;;;;;;9.32;2.65;;;;;;;-9.43;57.10;101539.53;5031696;28;20033;-40
2023/01/10 11:45:41;;;;;;;4.95;1.52;;;;;;;-9.33;57.91;101551.19;5028150;28;20081;-39
2023/01/10 11:48:20;;;;;;;10.48;2.75;;;;;;;-9.22;57.65;101540.25;5046335;28;20045;-39
2023/01/10 11:51:08;;;;;;;3.60;1.90;;;;;;;-9.20;57.66;101533.66;5029529;28;20128;-40
2023/01/10 11:54:20;;;;;;;3.88;1.45;;;;;;;-9.27;57.01;101534.00;5029295;28;20406;-39
2023/01/10 11:57:07;;;;;;;4.93;1.92;;;;;;;-9.15;56.71;101546.59;5034481;28;20504;-39
2023/01/10 11:59:33;;;;;;;3.28;1.30;;;;;;;-9.01;56.97;101566.16;5030975;28;20041;-39
2023/01/10 12:02:40;;;;;;;8.05;2.17;;;;;;;-9.10;56.95;101558.78;5047061;28;20102;-39
2023/01/10 12:05:24;;;;;;;4.70;1.55;;;;;;;-9.22;56.11;101588.13;5048949;28;20522;-39
2023/01/10 12:08:10;;;;;;;6.63;2.38;;;;;;;-9.17;56.76;101566.66;5032537;28;20037;-39
2023/01/10 12:10:54;;;;;;;3.42;1.70;;;;;;;-9.19;55.82;101560.63;5027392;28;20071;-40
2023/01/10 12:13:20;;;;;;;5.22;2.25;;;;;;;-9.21;56.80;101564.66;5035201;28;20428;-40
2023/01/10 12:16:14;;;;;;;2.65;1.33;;;;;;;-9.24;55.72;101569.47;5045598;28;20053;-39
2023/01/10 12:18:59;;;;;;;4.20;1.95;;;;;;;-9.29;56.06;101573.28;5038727;28;20067;-40
2023/01/10 12:21:56;;;;;;;7.13;2.45;;;;;;;-9.22;56.04;101565.44;5048680;28;20048;-39
2023/01/10 12:24:42;;;;;;;5.20;2.45;;;;;;;-9.22;55.93;101585.59;5045607;28;20505;-40
2023/01/10 12:27:12;;;;;;;2.40;1.55;;;;;;;-9.34;55.99;101584.66;5039189;28;20099;-40
2023/01/10 12:30:04;;;;;;;7.28;2.53;;;;;;;-9.35;55.53;101582.91;5045058;28;20696;-38
2023/01/10 12:32:37;;;;;;;8.32;2.03;;;;;;;-9.36;56.81;101572.72;5027492;28;20520;-40
2023/01/10 12:35:41;;;;;;;4.03;1.50;;;;;;;-9.32;55.98;101557.97;5041499;28;20045;-40
2023/01/10 12:44:43;;;;;;;5.22;2.53;;;;;;;-9.22;56.72;101557.88;5046149;28;20160;-39
2023/01/10 12:47:34;;;;;;;4.40;1.80;;;;;;;-9.32;56.80;101580.63;5047251;28;20033;-38
2023/01/10 12:50:22;;;;;;;7.80;2.57;;;;;;;-9.38;56.64;101591.88;5036614;28;20040;-40
2023/01/10 12:52:51;;;;;;;;;;;;;;;-9.43;56.88;101579.84;5047574;28;20367;-38
2023/01/10 12:55:45;;;;;;;11.80;1.25;;;;;;;-9.54;56.38;101562.16;5061237;28;20003;-39
2023/01/10 12:58:38;;;;;;;5.65;1.80;;;;;;;-9.45;55.87;101593.94;5026393;28;20417;-39
2023/01/10 13:01:24;;;;;;;3.67;1.83;;;;;;;-9.42;56.24;101593.31;5028211;28;20049;-40
2023/01/10 13:04:12;;;;;;;3.60;1.48;;;;;;;-9.46;56.05;101603.88;5028344;28;20039;-40
2023/01/10 13:06:58;;;;;;;3.25;1.80;;;;;;;-9.55;56.66;101571.34;5012821;28;20045;-46
2023/01/10 13:09:29;;;;;;;15.63;2.88;;;;;;;-9.77;56.60;101546.94;5048183;28;20051;-40
2023/01/10 13:12:32;;;;;;;8.18;2.72;;;;;;;-9.49;56.24;101581.88;5029280;28;20114;-41
2023/01/10 13:15:23;;;;;;;8.48;2.65;;;;;;;-9.48;55.80;101571.06;5046917;28;20047;-38
2023/01/10 13:18:23;;;;;;;7.07;2.58;;;;;;;-9.39;56.03;101575.91;5042059;28;20081;-39
2023/01/10 13:21:12;;;;;;;3.40;1.98;;;;;;;-9.60;55.99;101529.84;5041689;28;20114;-40
2023/01/10 13:24:19;;;;;;;11.00;2.25;;;;;;;-9.41;56.05;101587.47;5027062;28;20811;-39
2023/01/10 13:27:12;;;;;;;5.05;2.22;;;;;;;-9.47;55.91;101585.38;5027950;28;20060;-40
2023/01/10 13:30:31;;;;;;;4.32;1.80;;;;;;;-9.59;56.01;101578.56;5045425;28;20036;-39
2023/01/10 13:33:18;;;;;;;7.20;2.35;;;;;;;-9.65;56.43;101573.94;5029649;28;20041;-39
2023/01/10 13:36:16;;;;;;;5.47;1.70;;;;;;;-9.63;55.92;101576.56;5036268;28;20036;-39
2023/01/10 13:39:01;;;;;;;5.45;2.30;;;;;;;-9.62;56.08;101580.81;5047706;28;20037;-40
2023/01/10 13:44:59;;;;;;;3.53;1.88;;;;;;;-9.55;55.93;101595.63;5033869;28;20067;-39
2023/01/10 13:47:44;;;;;;;5.47;2.47;;;;;;;-9.61;57.00;101601.09;5032260;28;20412;-40
2023/01/10 13:50:41;;;;;;;3.10;1.55;;;;;;;-9.62;56.77;101594.28;5028945;28;20079;-39